Time;durP1;ratioP1;P1;durP2;ratioP2;P2;SDS_P1;SDS_P2;PMS_P1;PMS_P2;Temp;Humidity;BMP_temperature;BMP_pressure;BME280_temperature;BME280_humidity;BME280_pressure;Samples;Min_cycle;Max_cycle;Signal;HPM_P1;HPM_P2
2023/03/21 00:02:04;;;;;;;;;;;;;;;15.68;100.00;101498.91;4982082;28;19925;-49
2023/03/21 00:04:29;;;;;;;;;;;;;;;15.71;100.00;101485.81;4984126;28;20378;-52
2023/03/21 00:06:55;;;;;;;;;;;;;;;15.54;100.00;101485.47;4986651;28;20001;-49
2023/03/21 00:09:21;;;;;;;;;;;;;;;15.99;100.00;101502.75;4987845;28;19918;-53
2023/03/21 00:11:47;;;;;;;;;;;;;;;15.79;100.00;101492.84;4989379;28;19914;-54
2023/03/21 00:14:14;;;;;;;;;;;;;;;15.32;100.00;101488.44;4985488;28;19914;-54
2023/03/21 00:16:39;;;;;;;;;;;;;;;15.25;100.00;101498.44;4991549;28;19933;-53
2023/03/21 00:19:05;;;;;;;;;;;;;;;15.77;100.00;101481.44;4986976;28;19918;-51
2023/03/21 00:21:32;;;;;;;;;;;;;;;15.39;100.00;101484.91;4991604;28;19914;-51
2023/03/21 00:23:58;;;;;;;;;;;;;;;15.63;100.00;101488.78;4984449;28;19937;-53
2023/03/21 00:26:23;;;;;;;;;;;;;;;15.74;100.00;101484.59;4988040;28;19915;-52
2023/03/21 00:28:49;;;;;;;;;;;;;;;15.58;100.00;101477.81;4986996;28;19969;-52
2023/03/21 00:31:15;;;;;;;;;;;;;;;15.62;100.00;101477.16;4983775;28;19918;-52
2023/03/21 00:33:40;;;;;;;;;;;;;;;15.48;100.00;101480.94;5011444;28;19924;-50
2023/03/21 00:36:07;;;;;;;;;;;;;;;15.54;100.00;101480.09;4988282;28;19918;-51
2023/03/21 00:38:33;;;;;;;;;;;;;;;15.54;100.00;101480.09;4987508;28;19918;-55
2023/03/21 00:40:59;;;;;;;;;;;;;;;15.60;100.00;101473.84;4987143;28;20012;-51
2023/03/21 00:43:28;;;;;;;;;;;;;;;15.58;100.00;101465.13;4986647;28;19957;-53
2023/03/21 00:45:54;;;;;;;;;;;;;;;15.54;100.00;101463.06;4987742;28;19925;-49
2023/03/21 00:48:20;;;;;;;;;;;;;;;15.68;100.00;101459.28;4984796;28;19914;-53
2023/03/21 00:50:46;;;;;;;;;;;;;;;15.84;100.00;101465.25;4994193;28;19923;-51
2023/03/21 00:53:14;;;;;;;;;;;;;;;15.96;100.00;101473.50;4985152;28;19914;-50
2023/03/21 00:55:40;;;;;;;;;;;;;;;15.75;100.00;101453.88;4989630;28;19922;-52
2023/03/21 00:58:05;;;;;;;;;;;;;;;16.22;100.00;101450.09;4994892;28;19924;-55
2023/03/21 01:00:31;;;;;;;;;;;;;;;15.60;100.00;101457.66;5010853;28;19928;-49
2023/03/21 01:02:57;;;;;;;;;;;;;;;15.68;100.00;101458.44;4990541;28;19925;-49
2023/03/21 01:08:11;;;;;;;;;;;;;;;15.63;100.00;101440.25;4992250;28;19936;-53
2023/03/21 01:10:41;;;;;;;;;;;;;;;15.60;100.00;101446.88;4999535;28;19969;-49
2023/03/21 01:13:07;;;;;;;;;;;;;;;15.86;100.00;101439.69;4988414;28;19944;-51
2023/03/21 01:15:32;;;;;;;;;;;;;;;15.78;100.00;101437.25;4994092;28;19940;-48
2023/03/21 01:17:58;;;;;;;;;;;;;;;16.13;100.00;101436.84;4976695;28;20008;-50
2023/03/21 01:20:24;;;;;;;;;;;;;;;15.79;100.00;101425.44;4993230;28;19953;-49
2023/03/21 01:22:50;;;;;;;;;;;;;;;15.86;100.00;101437.00;4989666;28;19920;-48
2023/03/21 01:25:16;;;;;;;;;;;;;;;15.96;100.00;101438.44;4996741;28;19915;-53
2023/03/21 01:27:42;;;;;;;;;;;;;;;15.91;100.00;101431.84;4991334;28;19910;-50
2023/03/21 01:30:08;;;;;;;;;;;;;;;15.90;100.00;101426.66;4989932;28;19921;-49
2023/03/21 01:32:34;;;;;;;;;;;;;;;15.86;100.00;101423.50;4991254;28;19964;-49
2023/03/21 01:34:59;;;;;;;;;;;;;;;15.88;100.00;101423.31;4974597;28;19956;-49
2023/03/21 01:37:25;;;;;;;;;;;;;;;16.10;100.00;101420.31;4992991;28;19964;-53
2023/03/21 01:39:51;;;;;;;;;;;;;;;16.01;100.00;101417.84;5010513;28;19957;-50
2023/03/21 01:42:16;;;;;;;;;;;;;;;15.77;100.00;101424.81;5022074;28;19920;-52
2023/03/21 01:44:56;;;;;;;;;;;;;;;15.87;100.00;101419.78;5003801;28;19918;-53
2023/03/21 01:47:22;;;;;;;;;;;;;;;16.14;100.00;101406.13;5004034;28;19990;-53
2023/03/21 01:50:10;;;;;;;;;;;;;;;15.97;100.00;101402.34;4982919;28;19924;-54
2023/03/21 01:52:48;;;;;;;;;;;;;;;15.86;100.00;101404.63;4989849;28;19914;-52
2023/03/21 01:55:18;;;;;;;;;;;;;;;15.66;100.00;101406.63;5008794;28;19933;-52
2023/03/21 01:58:02;;;;;;;;;;;;;;;15.98;100.00;101394.00;4997115;28;19921;-53
2023/03/21 02:00:30;;;;;;;;;;;;;;;16.17;100.00;101396.78;4996205;28;19936;-49
2023/03/21 02:03:10;;;;;;;;;;;;;;;16.41;100.00;101389.75;4991310;28;19922;-52
2023/03/21 02:05:49;;;;;;;;;;;;;;;16.61;100.00;101384.16;4993700;28;19977;-51
2023/03/21 02:08:16;;;;;;;;;;;;;;;16.31;100.00;101384.84;4980740;28;19914;-48
2023/03/21 02:10:44;;;;;;;;;;;;;;;16.18;100.00;101379.56;4991457;28;19921;-51
2023/03/21 02:13:13;;;;;;;;;;;;;;;16.17;100.00;101381.44;4991966;28;19915;-49
2023/03/21 02:16:09;;;;;;;;;;;;;;;16.02;100.00;101380.91;4976671;28;19996;-51
2023/03/21 02:18:46;;;;;;;;;;;;;;;16.37;100.00;101379.59;4998657;28;19914;-53
2023/03/21 02:21:33;;;;;;;;;;;;;;;16.20;100.00;101378.28;4992520;28;19952;-51
2023/03/21 02:24:03;;;;;;;;;;;;;;;16.64;100.00;101369.41;4990557;28;19929;-52
2023/03/21 02:26:53;;;;;;;;;;;;;;;16.32;100.00;101364.06;4984178;28;19913;-51
2023/03/21 02:29:35;;;;;;;;;;;;;;;16.13;100.00;101364.00;4993168;28;19929;-50
2023/03/21 02:32:20;;;;;;;;;;;;;;;16.12;100.00;101359.66;4978431;28;19913;-49
2023/03/21 02:35:05;;;;;;;;;;;;;;;15.87;100.00;101363.13;4987396;28;19913;-52
2023/03/21 02:37:57;;;;;;;;;;;;;;;16.01;100.00;101358.50;4981028;28;19926;-48
2023/03/21 02:40:39;;;;;;;;;;;;;;;15.95;100.00;101355.88;4987539;28;19914;-52
2023/03/21 02:43:24;;;;;;;;;;;;;;;16.14;100.00;101352.16;4989613;28;19946;-53
2023/03/21 02:46:07;;;;;;;;;;;;;;;16.22;100.00;101350.25;4978455;28;19915;-48
2023/03/21 02:48:43;;;;;;;;;;;;;;;16.28;100.00;101343.97;4970953;28;20040;-48
2023/03/21 02:51:11;;;;;;;;;;;;;;;15.95;100.00;101345.09;4989209;28;19914;-49
2023/03/21 02:53:39;;;;;;;;;;;;;;;15.96;100.00;101342.16;4991272;28;20426;-52
2023/03/21 02:56:10;;;;;;;;;;;;;;;15.91;100.00;101348.22;4990672;28;19918;-53
2023/03/21 02:58:41;;;;;;;;;;;;;;;16.00;100.00;101347.94;4986038;28;19996;-53
2023/03/21 03:01:08;;;;;;;;;;;;;;;15.15;100.00;101345.31;5003720;28;19940;-54
2023/03/21 03:03:39;;;;;;;;;;;;;;;16.17;100.00;101343.66;5009385;28;19936;-52
2023/03/21 03:06:15;;;;;;;;;;;;;;;15.76;100.00;101339.59;4990935;28;19914;-55
2023/03/21 03:09:04;;;;;;;;;;;;;;;16.01;100.00;101341.50;5007329;28;19924;-51
2023/03/21 03:11:40;;;;;;;;;;;;;;;15.81;100.00;101347.03;4985050;28;19914;-50
2023/03/21 03:14:05;;;;;;;;;;;;;;;15.83;100.00;101337.66;4966886;28;19918;-53
2023/03/21 03:16:43;;;;;;;;;;;;;;;15.49;100.00;101353.22;4981699;28;19918;-52
2023/03/21 03:19:13;;;;;;;;;;;;;;;15.76;100.00;101331.50;4988143;28;19914;-52
2023/03/21 03:21:39;;;;;;;;;;;;;;;15.87;100.00;101338.88;5007890;28;19941;-54
2023/03/21 03:24:27;;;;;;;;;;;;;;;16.18;100.00;101331.81;4980866;28;19911;-49
2023/03/21 03:26:58;;;;;;;;;;;;;;;16.32;100.00;101328.97;4977101;28;20000;-49
2023/03/21 03:29:27;;;;;;;;;;;;;;;16.08;100.00;101334.19;4989492;28;19968;-51
2023/03/21 03:32:06;;;;;;;;;;;;;;;16.21;100.00;101333.22;4983185;28;19925;-50
2023/03/21 03:34:38;;;;;;;;;;;;;;;16.31;100.00;101332.72;4998142;28;19933;-47
2023/03/21 03:37:06;;;;;;;;;;;;;;;16.11;100.00;101331.03;4985499;28;19922;-54
2023/03/21 03:39:45;;;;;;;;;;;;;;;16.10;100.00;101325.88;4974319;28;19925;-51
2023/03/21 03:42:23;;;;;;;;;;;;;;;16.12;100.00;101323.78;5003461;28;19921;-52
2023/03/21 03:44:54;;;;;;;;;;;;;;;16.25;100.00;101314.75;4987207;28;19937;-53
2023/03/21 03:47:28;;;;;;;;;;;;;;;16.00;100.00;101310.19;4984689;28;19984;-53
2023/03/21 03:49:58;;;;;;;;;;;;;;;16.05;100.00;101318.44;4974316;28;19919;-50
2023/03/21 03:52:30;;;;;;;;;;;;;;;16.15;100.00;101317.94;4991067;28;19981;-54
2023/03/21 03:55:04;;;;;;;;;;;;;;;16.08;100.00;101309.91;5012275;28;20294;-54
2023/03/21 03:57:35;;;;;;;;;;;;;;;16.09;100.00;101308.84;4994847;28;19929;-52
2023/03/21 04:00:01;;;;;;;;;;;;;;;16.47;100.00;101320.53;4970758;28;19925;-54
2023/03/21 04:02:46;;;;;;;;;;;;;;;16.48;100.00;101312.22;4985679;28;19921;-51
2023/03/21 04:05:19;;;;;;;;;;;;;;;16.06;100.00;101309.28;4985783;28;19914;-55
2023/03/21 04:07:47;;;;;;;;;;;;;;;16.09;100.00;101311.53;5012625;28;19914;-49
2023/03/21 04:10:13;;;;;;;;;;;;;;;16.11;100.00;101312.16;5009750;28;19940;-50
2023/03/21 04:12:40;;;;;;;;;;;;;;;16.19;100.00;101316.44;4977711;28;19914;-49
2023/03/21 04:15:20;;;;;;;;;;;;;;;16.33;100.00;101300.94;4989773;28;19940;-53
2023/03/21 04:17:52;;;;;;;;;;;;;;;16.25;100.00;101307.44;4986186;28;19937;-49
2023/03/21 04:20:17;;;;;;;;;;;;;;;16.17;100.00;101300.50;4989422;28;19914;-52
2023/03/21 04:22:44;;;;;;;;;;;;;;;16.54;100.00;101296.16;4999441;28;19910;-50
2023/03/21 04:25:09;;;;;;;;;;;;;;;16.40;100.00;101293.63;5001382;28;19981;-52
2023/03/21 04:27:36;;;;;;;;;;;;;;;16.32;100.00;101293.91;4993198;28;19936;-53
2023/03/21 04:30:23;;;;;;;;;;;;;;;16.38;100.00;101298.44;4996351;28;19917;-52
2023/03/21 04:33:09;;;;;;;;;;;;;;;16.03;100.00;101291.69;4994721;28;19926;-51
2023/03/21 04:35:37;;;;;;;;;;;;;;;16.76;100.00;101288.47;5008177;28;19921;-54
2023/03/21 04:38:05;;;;;;;;;;;;;;;16.57;100.00;101293.84;4993167;28;19932;-51
2023/03/21 04:40:30;;;;;;;;;;;;;;;16.46;100.00;101298.13;4995586;28;19922;-51
2023/03/21 04:42:56;;;;;;;;;;;;;;;16.55;100.00;101284.31;4990283;28;19925;-51
2023/03/21 04:45:21;;;;;;;;;;;;;;;16.51;100.00;101280.44;4990296;28;19957;-55
2023/03/21 04:47:47;;;;;;;;;;;;;;;16.13;100.00;101282.25;4991593;28;19906;-54
2023/03/21 04:50:14;;;;;;;;;;;;;;;16.25;100.00;101279.66;5013280;28;19953;-54
2023/03/21 04:52:40;;;;;;;;;;;;;;;15.90;100.00;101271.03;4993598;28;19914;-54
2023/03/21 04:55:08;;;;;;;;;;;;;;;16.29;100.00;101275.47;4989153;28;19968;-51
2023/03/21 04:57:36;;;;;;;;;;;;;;;16.09;100.00;101270.25;4988762;28;20299;-48
2023/03/21 05:00:04;;;;;;;;;;;;;;;16.14;100.00;101276.63;4990520;28;19914;-50
2023/03/21 05:02:30;;;;;;;;;;;;;;;15.85;100.00;101273.53;4987155;28;19956;-53
2023/03/21 05:04:56;;;;;;;;;;;;;;;16.22;100.00;101274.72;4998488;28;19918;-53
2023/03/21 05:07:25;;;;;;;;;;;;;;;16.04;100.00;101270.91;4989059;28;19946;-50
2023/03/21 05:09:51;;;;;;;;;;;;;;;16.22;100.00;101263.91;5000329;28;19924;-52
2023/03/21 05:12:18;;;;;;;;;;;;;;;16.61;100.00;101268.06;4989148;28;19915;-54
2023/03/21 05:14:43;;;;;;;;;;;;;;;16.47;100.00;101271.94;5002486;28;19914;-53
2023/03/21 05:17:09;;;;;;;;;;;;;;;16.53;100.00;101270.22;4997490;28;19925;-50
2023/03/21 05:19:35;;;;;;;;;;;;;;;16.81;100.00;101266.16;4990153;28;19936;-52
2023/03/21 05:22:04;;;;;;;;;;;;;;;16.43;100.00;101258.09;4997755;28;19919;-48
2023/03/21 05:24:30;;;;;;;;;;;;;;;16.18;100.00;101250.88;4979071;28;19914;-53
2023/03/21 05:27:01;;;;;;;;;;;;;;;16.41;100.00;101257.50;4996913;28;19918;-51
2023/03/21 05:29:29;;;;;;;;;;;;;;;16.46;100.00;101265.72;4996821;28;19981;-53
2023/03/21 05:31:59;;;;;;;;;;;;;;;16.37;100.00;101256.25;4991559;28;19914;-52
2023/03/21 05:34:25;;;;;;;;;;;;;;;16.40;100.00;101258.53;4990851;28;19997;-51
2023/03/21 05:36:52;;;;;;;;;;;;;;;16.51;100.00;101246.16;4985641;28;19918;-50
2023/03/21 05:39:19;;;;;;;;;;;;;;;16.61;100.00;101253.75;4985189;28;19926;-52
2023/03/21 05:41:57;;;;;;;;;;;;;;;16.87;100.00;101257.97;5005462;28;19972;-49
2023/03/21 05:44:23;;;;;;;;;;;;;;;16.44;100.00;101251.63;4994762;28;19915;-50
2023/03/21 05:46:49;;;;;;;;;;;;;;;16.57;100.00;101247.97;4991157;28;19921;-49
2023/03/21 05:49:16;;;;;;;;;;;;;;;16.11;100.00;101247.41;5003264;28;19925;-53
2023/03/21 05:51:43;;;;;;;;;;;;;;;16.29;100.00;101248.47;4973063;28;19914;-48
2023/03/21 05:54:15;;;;;;;;;;;;;;;16.51;100.00;101254.28;5016212;28;19914;-49
2023/03/21 05:56:42;;;;;;;;;;;;;;;16.94;100.00;101259.75;4987996;28;19925;-50
2023/03/21 05:59:13;;;;;;;;;;;;;;;16.57;100.00;101255.22;4972477;28;19914;-52
2023/03/21 06:01:41;;;;;;;;;;;;;;;16.33;100.00;101250.50;4990741;28;19925;-53
2023/03/21 06:04:12;;;;;;;;;;;;;;;16.45;100.00;101247.88;4984518;28;19935;-51
2023/03/21 06:06:39;;;;;;;;;;;;;;;16.65;100.00;101243.28;4989270;28;19964;-53
2023/03/21 06:09:05;;;;;;;;;;;;;;;16.60;100.00;101242.09;4995974;28;19917;-52
2023/03/21 06:11:32;;;;;;;;;;;;;;;16.69;100.00;101247.19;4990577;28;19914;-55
2023/03/21 06:14:17;;;;;;;;;;;;;;;16.60;100.00;101241.28;4993757;28;19939;-52
2023/03/21 06:16:47;;;;;;;;;;;;;;;16.34;100.00;101240.53;4980237;28;19937;-50
2023/03/21 06:19:13;;;;;;;;;;;;;;;16.64;100.00;101245.19;4984562;28;19919;-49
2023/03/21 06:21:56;;;;;;;;;;;;;;;16.62;100.00;101247.28;4993544;28;19969;-51
2023/03/21 06:24:22;;;;;;;;;;;;;;;16.55;100.00;101255.47;4983466;28;19914;-52
2023/03/21 06:26:47;;;;;;;;;;;;;;;16.48;100.00;101247.44;4995194;28;19914;-51
2023/03/21 06:29:13;;;;;;;;;;;;;;;16.71;100.00;101256.72;4986171;28;19914;-50
2023/03/21 06:31:40;;;;;;;;;;;;;;;16.52;100.00;101255.09;4973472;28;19914;-51
2023/03/21 06:34:06;;;;;;;;;;;;;;;16.48;100.00;101252.84;4964600;28;19960;-53
2023/03/21 06:36:32;;;;;;;;;;;;;;;16.65;100.00;101256.78;4981605;28;19918;-52
2023/03/21 06:38:57;;;;;;;;;;;;;;;16.54;100.00;101261.06;4975268;28;19925;-50
2023/03/21 06:41:24;;;;;;;;;;;;;;;16.40;100.00;101258.53;4972275;28;19922;-50
2023/03/21 06:43:58;;;;;;;;;;;;;;;16.40;100.00;101263.94;4992784;28;19929;-49
2023/03/21 06:46:25;;;;;;;;;;;;;;;16.06;100.00;101263.44;4975720;28;19918;-50
2023/03/21 06:48:51;;;;;;;;;;;;;;;15.85;100.00;101253.84;4980062;28;19918;-52
2023/03/21 06:51:17;;;;;;;;;;;;;;;16.37;100.00;101253.56;4985119;28;19960;-54
2023/03/21 06:54:02;;;;;;;;;;;;;;;16.24;100.00;101256.41;4983724;28;19929;-49
2023/03/21 06:56:36;;;;;;;;;;;;;;;16.12;100.00;101254.44;4985689;28;19918;-51
2023/03/21 06:59:02;;;;;;;;;;;;;;;16.13;100.00;101256.09;4975908;28;19941;-51
2023/03/21 07:01:44;;;;;;;;;;;;;;;16.07;100.00;101251.59;4971433;28;19933;-54
2023/03/21 07:04:11;;;;;;;;;;;;;;;16.03;100.00;101255.78;4997217;28;19914;-52
2023/03/21 07:06:37;;;;;;;;;;;;;;;16.33;100.00;101255.06;4979107;28;19968;-53
2023/03/21 07:09:04;;;;;;;;;;;;;;;16.10;100.00;101253.84;4979469;28;19920;-50
2023/03/21 07:11:31;;;;;;;;;;;;;;;16.31;100.00;101259.88;4992507;28;19986;-51
2023/03/21 07:13:57;;;;;;;;;;;;;;;16.04;100.00;101262.81;4987258;28;19963;-54
2023/03/21 07:16:23;;;;;;;;;;;;;;;16.09;100.00;101254.09;4987304;28;19927;-49
2023/03/21 07:18:50;;;;;;;;;;;;;;;16.03;100.00;101267.41;4988242;28;19914;-49
2023/03/21 07:21:16;;;;;;;;;;;;;;;16.02;100.00;101270.31;4976378;28;20298;-53
2023/03/21 07:23:42;;;;;;;;;;;;;;;15.88;100.00;101269.59;4985542;28;19945;-51
2023/03/21 07:26:09;;;;;;;;;;;;;;;15.69;100.00;101257.91;4992677;28;19922;-51
2023/03/21 07:28:35;;;;;;;;;;;;;;;15.72;100.00;101273.66;4987495;28;19977;-53
2023/03/21 07:31:05;;;;;;;;;;;;;;;15.84;100.00;101271.88;4986822;28;19921;-51
2023/03/21 07:33:31;;;;;;;;;;;;;;;15.86;100.00;101272.47;5003701;28;19981;-52
2023/03/21 07:35:59;;;;;;;;;;;;;;;15.86;100.00;101268.97;4968369;28;19922;-55
2023/03/21 07:38:25;;;;;;;;;;;;;;;16.07;100.00;101269.66;4969792;28;19979;-50
2023/03/21 07:40:50;;;;;;;;;;;;;;;16.15;100.00;101274.75;4966865;28;19953;-51
2023/03/21 07:43:16;;;;;;;;;;;;;;;16.47;100.00;101272.78;4965744;28;19949;-54
2023/03/21 07:45:43;;;;;;;;;;;;;;;16.02;100.00;101276.53;4969934;28;19939;-56
2023/03/21 07:48:11;;;;;;;;;;;;;;;15.71;100.00;101263.91;4977085;28;19937;-52
2023/03/21 07:50:38;;;;;;;;;;;;;;;15.86;100.00;101259.00;4985482;28;19924;-53
2023/03/21 07:53:05;;;;;;;;;;;;;;;15.72;100.00;101252.09;4983386;28;19925;-53
2023/03/21 07:55:33;;;;;;;;;;;;;;;16.09;100.00;101254.09;4988300;28;19918;-50
2023/03/21 07:57:59;;;;;;;;;;;;;;;15.89;100.00;101245.09;4991695;28;19941;-50
2023/03/21 08:00:25;;;;;;;;;;;;;;;16.09;100.00;101243.28;4984266;28;19969;-54
2023/03/21 08:02:53;;;;;;;;;;;;;;;16.09;100.00;101241.41;4983301;28;19920;-49
2023/03/21 08:05:23;;;;;;;;;;;;;;;15.79;100.00;101242.06;4980577;28;19914;-54
2023/03/21 08:07:49;;;;;;;;;;;;;;;15.69;100.00;101236.34;4983208;28;19942;-53
2023/03/21 08:10:15;;;;;;;;;;;;;;;15.66;100.00;101252.94;4983630;28;19972;-50
2023/03/21 08:12:40;;;;;;;;;;;;;;;15.54;100.00;101245.56;4984610;28;19967;-52
2023/03/21 08:15:06;;;;;;;;;;;;;;;15.69;100.00;101245.25;4986794;28;19911;-52
2023/03/21 08:17:31;;;;;;;;;;;;;;;16.09;100.00;101238.69;4982608;28;19914;-53
2023/03/21 08:19:56;;;;;;;;;;;;;;;16.15;100.00;101243.22;4989238;28;19915;-54
2023/03/21 08:22:22;;;;;;;;;;;;;;;15.95;100.00;101237.19;4987135;28;19918;-51
2023/03/21 08:24:48;;;;;;;;;;;;;;;16.63;100.00;101238.13;4987728;28;19949;-56
2023/03/21 08:27:13;;;;;;;;;;;;;;;16.60;100.00;101235.88;4986936;28;19914;-54
2023/03/21 08:29:41;;;;;;;;;;;;;;;16.84;100.00;101236.00;4990478;28;19945;-56
2023/03/21 08:32:06;;;;;;;;;;;;;;;16.48;100.00;101220.44;4988646;28;19920;-53
2023/03/21 08:34:31;;;;;;;;;;;;;;;16.54;100.00;101228.69;4991261;28;19918;-52
2023/03/21 08:36:57;;;;;;;;;;;;;;;16.67;100.00;101225.84;4984378;28;19918;-55
2023/03/21 08:39:23;;;;;;;;;;;;;;;16.47;100.00;101221.50;4984716;28;19933;-54
2023/03/21 08:41:49;;;;;;;;;;;;;;;16.76;100.00;101219.06;4985055;28;19913;-53
2023/03/21 08:44:15;;;;;;;;;;;;;;;16.42;100.00;101221.34;4986417;28;19961;-54
2023/03/21 08:46:41;;;;;;;;;;;;;;;16.46;100.00;101219.00;4982854;28;19926;-53
2023/03/21 08:49:06;;;;;;;;;;;;;;;16.67;100.00;101216.88;4983699;28;19918;-52
2023/03/21 08:51:32;;;;;;;;;;;;;;;16.73;100.00;101211.41;4986658;28;19921;-53
2023/03/21 08:53:57;;;;;;;;;;;;;;;16.88;100.00;101219.09;4983098;28;19914;-51
2023/03/21 08:56:23;;;;;;;;;;;;;;;16.59;100.00;101210.75;4983026;28;19976;-51
2023/03/21 08:58:48;;;;;;;;;;;;;;;16.50;100.00;101201.34;4984017;28;19918;-53
2023/03/21 09:01:14;;;;;;;;;;;;;;;16.36;100.00;101200.63;4985469;28;19918;-52
2023/03/21 09:03:40;;;;;;;;;;;;;;;16.57;100.00;101203.94;4981743;28;19918;-51
2023/03/21 09:06:09;;;;;;;;;;;;;;;16.90;100.00;101198.09;4981814;28;19978;-54
2023/03/21 09:08:40;;;;;;;;;;;;;;;16.77;100.00;101198.28;4986131;28;19945;-55
2023/03/21 09:11:06;;;;;;;;;;;;;;;16.73;100.00;101191.69;4989194;28;19918;-54
2023/03/21 09:13:31;;;;;;;;;;;;;;;17.02;100.00;101198.16;4985566;28;19939;-50
2023/03/21 09:16:00;;;;;;;;;;;;;;;16.65;100.00;101197.41;4983174;28;19937;-50
2023/03/21 09:18:43;;;;;;;;;;;;;;;16.72;100.00;101190.88;4988107;28;19918;-52
2023/03/21 09:21:13;;;;;;;;;;;;;;;16.56;100.00;101194.19;4988181;28;19973;-57
2023/03/21 09:23:40;;;;;;;;;;;;;;;16.84;100.00;101179.28;4989162;28;19910;-54
2023/03/21 09:26:06;;;;;;;;;;;;;;;16.80;100.00;101183.47;4985191;28;19945;-53
2023/03/21 09:28:32;;;;;;;;;;;;;;;16.56;100.00;101184.22;4987263;28;19985;-53
2023/03/21 09:30:59;;;;;;;;;;;;;;;16.57;100.00;101185.88;4983578;28;19921;-56
2023/03/21 09:33:24;;;;;;;;;;;;;;;17.24;100.00;101184.13;4986922;28;19918;-54
2023/03/21 09:35:50;;;;;;;;;;;;;;;16.76;100.00;101183.13;4985599;28;19948;-55
2023/03/21 09:38:16;;;;;;;;;;;;;;;16.65;100.00;101170.41;4989203;28;19922;-53
2023/03/21 09:40:55;;;;;;;;;;;;;;;16.67;100.00;101173.69;4987582;28;19925;-51
2023/03/21 09:43:24;;;;;;;;;;;;;;;16.42;100.00;101167.38;4987030;28;19944;-54
2023/03/21 09:45:53;;;;;;;;;;;;;;;17.00;100.00;101170.56;4992975;28;19914;-56
2023/03/21 09:48:29;;;;;;;;;;;;;;;16.82;100.00;101170.56;4989740;28;19983;-56
2023/03/21 09:50:54;;;;;;;;;;;;;;;16.61;100.00;101156.53;4986953;28;19945;-53
2023/03/21 09:53:32;;;;;;;;;;;;;;;16.94;100.00;101147.13;4989299;28;19914;-55
2023/03/21 09:56:00;;;;;;;;;;;;;;;17.09;100.00;101167.53;4987937;28;19922;-50
2023/03/21 09:58:29;;;;;;;;;;;;;;;16.92;100.00;101152.75;4988290;28;19933;-52
2023/03/21 10:01:06;;;;;;;;;;;;;;;17.00;100.00;101151.66;4983712;28;19914;-50
2023/03/21 10:03:35;;;;;;;;;;;;;;;16.95;100.00;101153.34;4984708;28;19914;-51
2023/03/21 10:06:09;;;;;;;;;;;;;;;17.44;100.00;101153.25;4985348;28;19914;-52
2023/03/21 10:08:38;;;;;;;;;;;;;;;17.16;100.00;101154.75;4989118;28;19918;-52
2023/03/21 10:11:10;;;;;;;;;;;;;;;16.94;100.00;101151.69;4986448;28;19914;-52
2023/03/21 10:13:39;;;;;;;;;;;;;;;17.47;100.00;101159.03;4984716;28;19921;-50
2023/03/21 10:16:15;;;;;;;;;;;;;;;17.68;100.00;101164.06;4980239;28;19974;-53
2023/03/21 10:18:41;;;;;;;;;;;;;;;17.26;100.00;101154.97;4981539;28;19914;-53
2023/03/21 10:21:10;;;;;;;;;;;;;;;17.57;100.00;101150.34;4986224;28;19913;-51
2023/03/21 10:23:36;;;;;;;;;;;;;;;16.96;100.00;101161.25;4986344;28;19921;-51
2023/03/21 10:26:04;;;;;;;;;;;;;;;17.20;100.00;101147.81;4982992;28;19915;-53
2023/03/21 10:28:36;;;;;;;;;;;;;;;17.80;100.00;101154.09;4983463;28;19948;-52
2023/03/21 10:31:05;;;;;;;;;;;;;;;17.78;100.00;101145.38;4984324;28;19914;-53
2023/03/21 10:33:34;;;;;;;;;;;;;;;17.75;100.00;101146.69;4980695;28;19924;-53
2023/03/21 10:36:10;;;;;;;;;;;;;;;17.76;100.00;101150.19;4983255;28;19918;-49
2023/03/21 10:38:38;;;;;;;;;;;;;;;18.04;100.00;101137.84;4988240;28;19919;-49
2023/03/21 10:41:04;;;;;;;;;;;;;;;17.73;100.00;101129.03;4982674;28;19945;-52
2023/03/21 10:43:36;;;;;;;;;;;;;;;17.81;100.00;101128.69;4985925;28;19914;-54
2023/03/21 10:46:06;;;;;;;;;;;;;;;17.86;100.00;101131.50;4981142;28;19959;-52
2023/03/21 10:48:35;;;;;;;;;;;;;;;18.29;100.00;101134.03;4985169;28;19916;-48
2023/03/21 10:51:01;;;;;;;;;;;;;;;17.59;100.00;101153.63;4985476;28;19919;-51
2023/03/21 10:53:28;;;;;;;;;;;;;;;17.64;100.00;101142.06;4987494;28;19914;-48
2023/03/21 10:55:56;;;;;;;;;;;;;;;17.80;100.00;101153.25;4984276;28;19985;-49
2023/03/21 10:58:26;;;;;;;;;;;;;;;17.80;100.00;101164.06;4985707;28;19943;-52
2023/03/21 11:01:01;;;;;;;;;;;;;;;17.51;100.00;101156.66;4984448;28;19922;-52
2023/03/21 11:03:31;;;;;;;;;;;;;;;17.06;100.00;101131.78;4987914;28;19914;-53
2023/03/21 11:06:07;;;;;;;;;;;;;;;17.42;100.00;101160.78;4985179;28;19918;-52
2023/03/21 11:08:47;;;;;;;;;;;;;;;17.13;100.00;101144.41;4983880;28;19914;-53
2023/03/21 11:11:19;;;;;;;;;;;;;;;17.35;100.00;101141.97;4988879;28;19939;-53
2023/03/21 11:13:44;;;;;;;;;;;;;;;17.78;100.00;101129.16;4986765;28;19977;-53
2023/03/21 11:16:11;;;;;;;;;;;;;;;18.18;100.00;101133.00;4984136;28;19929;-53
2023/03/21 11:18:41;;;;;;;;;;;;;;;18.40;100.00;101133.16;4982910;28;19938;-51
2023/03/21 11:21:08;;;;;;;;;;;;;;;18.26;100.00;101131.81;4985293;28;19910;-55
2023/03/21 11:23:37;;;;;;;;;;;;;;;18.18;100.00;101138.41;4981627;28;19918;-48
2023/03/21 11:26:07;;;;;;;;;;;;;;;18.67;100.00;101124.44;4989966;28;19913;-53
2023/03/21 11:28:38;;;;;;;;;;;;;;;18.97;100.00;101117.09;4986701;28;20009;-49
2023/03/21 11:31:04;;;;;;;;;;;;;;;18.51;100.00;101117.94;4984278;28;20147;-50
2023/03/21 11:33:45;;;;;;;;;;;;;;;18.83;100.00;101124.72;4985101;28;19989;-49
2023/03/21 11:36:16;;;;;;;;;;;;;;;18.75;100.00;101134.91;4979086;28;19929;-55
2023/03/21 11:38:42;;;;;;;;;;;;;;;18.88;100.00;101131.06;4985180;28;19981;-54
2023/03/21 11:41:07;;;;;;;;;;;;;;;18.37;100.00;101122.81;4983650;28;20250;-51
2023/03/21 11:43:37;;;;;;;;;;;;;;;18.20;100.00;101117.34;4978621;28;20003;-52
2023/03/21 11:46:03;;;;;;;;;;;;;;;18.49;100.00;101101.94;4983495;28;19922;-53
2023/03/21 11:48:29;;;;;;;;;;;;;;;18.50;100.00;101116.28;4982050;28;19926;-53
2023/03/21 11:51:01;;;;;;;;;;;;;;;18.28;100.00;101116.94;4984947;28;19925;-53
2023/03/21 11:53:30;;;;;;;;;;;;;;;18.57;100.00;101118.84;4986407;28;19914;-52
2023/03/21 11:56:14;;;;;;;;;;;;;;;18.46;100.00;101113.25;4983561;28;19918;-51
2023/03/21 11:58:52;;;;;;;;;;;;;;;18.22;100.00;101114.38;4982717;28;19914;-53
2023/03/21 12:01:23;;;;;;;;;;;;;;;18.34;100.00;101101.63;4980249;28;19915;-53
2023/03/21 12:03:55;;;;;;;;;;;;;;;18.22;100.00;101115.22;4980597;28;19918;-53
2023/03/21 12:06:23;;;;;;;;;;;;;;;18.43;100.00;101102.88;4980628;28;19921;-51
2023/03/21 12:09:04;;;;;;;;;;;;;;;18.51;100.00;101093.56;4991196;28;19922;-55
2023/03/21 12:11:32;;;;;;;;;;;;;;;18.47;100.00;101103.22;4982079;28;19977;-52
2023/03/21 12:14:17;;;;;;;;;;;;;;;18.73;100.00;101090.97;4986257;28;19949;-55
2023/03/21 12:16:55;;;;;;;;;;;;;;;18.78;100.00;101098.34;4984100;28;19918;-54
2023/03/21 12:19:33;;;;;;;;;;;;;;;18.99;100.00;101102.28;4988177;28;19944;-54
2023/03/21 12:22:04;;;;;;;;;;;;;;;18.86;100.00;101086.31;4986049;28;19917;-53
2023/03/21 12:24:45;;;;;;;;;;;;;;;18.80;100.00;101084.59;4985657;28;19949;-55
2023/03/21 12:27:36;;;;;;;;;;;;;;;18.97;100.00;101080.00;4985666;28;19914;-50
2023/03/21 12:30:04;;;;;;;;;;;;;;;18.75;100.00;101080.72;4958370;28;19922;-49
2023/03/21 12:32:56;;;;;;;;;;;;;;;19.18;100.00;101085.78;4992285;28;19953;-49
2023/03/21 12:35:41;;;;;;;;;;;;;;;19.81;100.00;101082.03;4985332;28;19918;-51
2023/03/21 12:38:20;;;;;;;;;;;;;;;19.31;100.00;101077.28;4988412;28;19949;-56
2023/03/21 12:40:55;;;;;;;;;;;;;;;19.72;100.00;101071.63;4989190;28;19918;-51
2023/03/21 12:43:26;;;;;;;;;;;;;;;19.68;100.00;101066.97;4988897;28;19914;-55
2023/03/21 12:45:54;;;;;;;;;;;;;;;18.62;100.00;101071.03;4987900;28;19985;-54